sensor_id;sensor_type;location;lat;lon;timestamp;P1;durP1;ratioP1;P2;durP2;ratioP2
26702;SDS011;14316;51.074;3.704;2022-11-27T00:00:32;17.65;;;10.68;;
26702;SDS011;14316;51.074;3.704;2022-11-27T00:02:59;11.77;;;8.50;;
26702;SDS011;14316;51.074;3.704;2022-11-27T00:05:24;12.30;;;8.45;;
26702;SDS011;14316;51.074;3.704;2022-11-27T00:07:51;10.90;;;8.23;;
26702;SDS011;14316;51.074;3.704;2022-11-27T00:10:16;14.52;;;8.48;;
26702;SDS011;14316;51.074;3.704;2022-11-27T00:12:42;13.25;;;8.15;;
26702;SDS011;14316;51.074;3.704;2022-11-27T00:15:08;14.27;;;8.68;;
26702;SDS011;14316;51.074;3.704;2022-11-27T00:17:34;12.27;;;9.30;;
26702;SDS011;14316;51.074;3.704;2022-11-27T00:20:00;11.05;;;8.40;;
26702;SDS011;14316;51.074;3.704;2022-11-27T00:22:25;11.20;;;7.38;;
26702;SDS011;14316;51.074;3.704;2022-11-27T00:24:52;11.57;;;7.57;;
26702;SDS011;14316;51.074;3.704;2022-11-27T00:27:18;11.85;;;7.88;;
26702;SDS011;14316;51.074;3.704;2022-11-27T00:29:43;13.40;;;8.00;;
26702;SDS011;14316;51.074;3.704;2022-11-27T00:32:10;11.38;;;7.72;;
26702;SDS011;14316;51.074;3.704;2022-11-27T00:34:36;14.00;;;7.88;;
26702;SDS011;14316;51.074;3.704;2022-11-27T00:37:02;12.32;;;6.85;;
26702;SDS011;14316;51.074;3.704;2022-11-27T00:39:28;14.13;;;7.95;;
26702;SDS011;14316;51.074;3.704;2022-11-27T00:41:54;13.23;;;7.75;;
26702;SDS011;14316;51.074;3.704;2022-11-27T00:44:20;10.32;;;6.93;;
26702;SDS011;14316;51.074;3.704;2022-11-27T00:46:45;10.77;;;7.25;;
26702;SDS011;14316;51.074;3.704;2022-11-27T00:49:12;11.05;;;7.13;;
26702;SDS011;14316;51.074;3.704;2022-11-27T00:51:39;12.38;;;7.38;;
26702;SDS011;14316;51.074;3.704;2022-11-27T00:54:05;9.52;;;6.13;;
26702;SDS011;14316;51.074;3.704;2022-11-27T00:56:32;10.23;;;6.90;;
26702;SDS011;14316;51.074;3.704;2022-11-27T00:59:00;12.70;;;6.80;;
26702;SDS011;14316;51.074;3.704;2022-11-27T01:01:30;12.98;;;6.45;;
26702;SDS011;14316;51.074;3.704;2022-11-27T01:03:58;11.32;;;6.63;;
26702;SDS011;14316;51.074;3.704;2022-11-27T01:06:26;10.50;;;6.13;;
26702;SDS011;14316;51.074;3.704;2022-11-27T01:08:53;11.07;;;6.35;;
26702;SDS011;14316;51.074;3.704;2022-11-27T01:11:20;9.82;;;6.22;;
26702;SDS011;14316;51.074;3.704;2022-11-27T01:13:50;10.30;;;6.80;;
26702;SDS011;14316;51.074;3.704;2022-11-27T01:16:18;11.18;;;6.30;;
26702;SDS011;14316;51.074;3.704;2022-11-27T01:18:46;11.80;;;6.22;;
26702;SDS011;14316;51.074;3.704;2022-11-27T01:21:13;12.68;;;6.10;;
26702;SDS011;14316;51.074;3.704;2022-11-27T01:23:40;10.90;;;6.35;;
26702;SDS011;14316;51.074;3.704;2022-11-27T01:26:07;10.85;;;6.38;;
26702;SDS011;14316;51.074;3.704;2022-11-27T01:28:35;10.02;;;6.38;;
26702;SDS011;14316;51.074;3.704;2022-11-27T01:31:08;10.77;;;7.00;;
26702;SDS011;14316;51.074;3.704;2022-11-27T01:33:37;13.63;;;7.65;;
26702;SDS011;14316;51.074;3.704;2022-11-27T01:36:03;13.73;;;6.55;;
26702;SDS011;14316;51.074;3.704;2022-11-27T01:38:31;12.55;;;6.75;;
26702;SDS011;14316;51.074;3.704;2022-11-27T01:40:59;12.40;;;6.75;;
26702;SDS011;14316;51.074;3.704;2022-11-27T01:46:17;11.13;;;6.07;;
26702;SDS011;14316;51.074;3.704;2022-11-27T01:48:56;12.90;;;6.38;;
26702;SDS011;14316;51.074;3.704;2022-11-27T01:51:34;12.05;;;6.28;;
26702;SDS011;14316;51.074;3.704;2022-11-27T01:54:22;13.50;;;6.75;;
26702;SDS011;14316;51.074;3.704;2022-11-27T01:56:52;13.50;;;5.93;;
26702;SDS011;14316;51.074;3.704;2022-11-27T01:59:22;14.77;;;8.10;;
26702;SDS011;14316;51.074;3.704;2022-11-27T02:01:48;13.98;;;6.20;;
26702;SDS011;14316;51.074;3.704;2022-11-27T02:04:13;16.25;;;6.90;;
26702;SDS011;14316;51.074;3.704;2022-11-27T02:06:39;13.35;;;5.70;;
26702;SDS011;14316;51.074;3.704;2022-11-27T02:09:06;11.93;;;5.93;;
26702;SDS011;14316;51.074;3.704;2022-11-27T02:14:34;12.00;;;5.32;;
26702;SDS011;14316;51.074;3.704;2022-11-27T02:22:35;15.05;;;5.57;;
26702;SDS011;14316;51.074;3.704;2022-11-27T02:25:17;12.70;;;4.57;;
26702;SDS011;14316;51.074;3.704;2022-11-27T02:31:08;7.53;;;4.60;;
26702;SDS011;14316;51.074;3.704;2022-11-27T02:33:36;12.77;;;5.68;;
26702;SDS011;14316;51.074;3.704;2022-11-27T02:36:10;11.88;;;5.45;;
26702;SDS011;14316;51.074;3.704;2022-11-27T02:38:43;12.82;;;5.85;;
26702;SDS011;14316;51.074;3.704;2022-11-27T02:41:30;10.77;;;5.53;;
26702;SDS011;14316;51.074;3.704;2022-11-27T02:44:02;15.93;;;6.95;;
26702;SDS011;14316;51.074;3.704;2022-11-27T02:46:31;15.45;;;7.10;;
26702;SDS011;14316;51.074;3.704;2022-11-27T02:49:01;14.55;;;6.93;;
26702;SDS011;14316;51.074;3.704;2022-11-27T02:51:37;11.63;;;6.45;;
26702;SDS011;14316;51.074;3.704;2022-11-27T02:54:07;15.48;;;7.82;;
26702;SDS011;14316;51.074;3.704;2022-11-27T02:56:37;17.45;;;7.07;;
26702;SDS011;14316;51.074;3.704;2022-11-27T02:59:05;15.40;;;7.57;;
26702;SDS011;14316;51.074;3.704;2022-11-27T03:01:37;16.17;;;7.63;;
26702;SDS011;14316;51.074;3.704;2022-11-27T03:04:11;17.13;;;7.60;;
26702;SDS011;14316;51.074;3.704;2022-11-27T03:06:46;17.77;;;6.60;;
26702;SDS011;14316;51.074;3.704;2022-11-27T03:09:37;14.10;;;6.93;;
26702;SDS011;14316;51.074;3.704;2022-11-27T03:12:07;20.42;;;7.82;;
26702;SDS011;14316;51.074;3.704;2022-11-27T03:14:34;17.45;;;7.18;;
26702;SDS011;14316;51.074;3.704;2022-11-27T03:20:10;17.75;;;6.47;;
26702;SDS011;14316;51.074;3.704;2022-11-27T03:22:39;17.45;;;6.70;;
26702;SDS011;14316;51.074;3.704;2022-11-27T03:25:05;13.63;;;7.32;;
26702;SDS011;14316;51.074;3.704;2022-11-27T03:27:32;16.33;;;6.80;;
26702;SDS011;14316;51.074;3.704;2022-11-27T03:30:05;14.88;;;6.97;;
26702;SDS011;14316;51.074;3.704;2022-11-27T03:32:32;19.17;;;6.80;;
26702;SDS011;14316;51.074;3.704;2022-11-27T03:34:59;15.52;;;7.05;;
26702;SDS011;14316;51.074;3.704;2022-11-27T03:37:26;14.73;;;6.63;;
26702;SDS011;14316;51.074;3.704;2022-11-27T03:39:53;15.15;;;5.82;;
26702;SDS011;14316;51.074;3.704;2022-11-27T03:45:32;14.70;;;5.30;;
26702;SDS011;14316;51.074;3.704;2022-11-27T03:48:20;14.80;;;5.70;;
26702;SDS011;14316;51.074;3.704;2022-11-27T03:53:51;15.10;;;5.10;;
26702;SDS011;14316;51.074;3.704;2022-11-27T03:59:16;11.98;;;5.20;;
26702;SDS011;14316;51.074;3.704;2022-11-27T04:01:54;14.65;;;5.25;;
26702;SDS011;14316;51.074;3.704;2022-11-27T04:04:20;11.60;;;5.43;;
26702;SDS011;14316;51.074;3.704;2022-11-27T04:06:45;15.02;;;5.65;;
26702;SDS011;14316;51.074;3.704;2022-11-27T04:09:11;11.85;;;5.25;;
26702;SDS011;14316;51.074;3.704;2022-11-27T04:11:37;13.48;;;5.30;;
26702;SDS011;14316;51.074;3.704;2022-11-27T04:14:03;15.65;;;5.85;;
26702;SDS011;14316;51.074;3.704;2022-11-27T04:16:29;14.30;;;5.72;;
26702;SDS011;14316;51.074;3.704;2022-11-27T04:18:57;14.85;;;5.80;;
26702;SDS011;14316;51.074;3.704;2022-11-27T04:21:23;17.15;;;6.13;;
26702;SDS011;14316;51.074;3.704;2022-11-27T04:23:49;15.30;;;5.15;;
26702;SDS011;14316;51.074;3.704;2022-11-27T04:26:14;13.23;;;5.30;;
26702;SDS011;14316;51.074;3.704;2022-11-27T04:28:40;12.82;;;5.00;;
26702;SDS011;14316;51.074;3.704;2022-11-27T04:31:06;11.70;;;5.18;;
26702;SDS011;14316;51.074;3.704;2022-11-27T04:33:32;11.80;;;5.55;;
26702;SDS011;14316;51.074;3.704;2022-11-27T04:35:58;7.88;;;4.38;;
26702;SDS011;14316;51.074;3.704;2022-11-27T04:38:24;11.20;;;4.88;;
26702;SDS011;14316;51.074;3.704;2022-11-27T04:40:50;13.13;;;4.72;;
26702;SDS011;14316;51.074;3.704;2022-11-27T04:43:17;10.30;;;4.72;;
26702;SDS011;14316;51.074;3.704;2022-11-27T04:45:44;12.82;;;4.82;;
26702;SDS011;14316;51.074;3.704;2022-11-27T04:48:09;13.32;;;4.78;;
26702;SDS011;14316;51.074;3.704;2022-11-27T04:50:35;13.75;;;5.05;;
26702;SDS011;14316;51.074;3.704;2022-11-27T04:53:01;12.75;;;4.60;;
26702;SDS011;14316;51.074;3.704;2022-11-27T04:55:27;10.85;;;4.30;;
26702;SDS011;14316;51.074;3.704;2022-11-27T04:57:53;12.43;;;5.10;;
26702;SDS011;14316;51.074;3.704;2022-11-27T05:00:19;13.43;;;4.53;;
26702;SDS011;14316;51.074;3.704;2022-11-27T05:02:45;11.20;;;4.70;;
26702;SDS011;14316;51.074;3.704;2022-11-27T05:05:11;13.35;;;4.97;;
26702;SDS011;14316;51.074;3.704;2022-11-27T05:07:37;10.68;;;4.55;;
26702;SDS011;14316;51.074;3.704;2022-11-27T05:10:03;9.98;;;4.90;;
26702;SDS011;14316;51.074;3.704;2022-11-27T05:12:29;9.98;;;4.88;;
26702;SDS011;14316;51.074;3.704;2022-11-27T05:14:55;9.73;;;4.97;;
26702;SDS011;14316;51.074;3.704;2022-11-27T05:17:21;12.77;;;4.85;;
26702;SDS011;14316;51.074;3.704;2022-11-27T05:19:47;15.48;;;4.65;;
26702;SDS011;14316;51.074;3.704;2022-11-27T05:22:13;11.40;;;4.80;;
26702;SDS011;14316;51.074;3.704;2022-11-27T05:24:39;11.90;;;4.60;;
26702;SDS011;14316;51.074;3.704;2022-11-27T05:27:04;14.50;;;4.80;;
26702;SDS011;14316;51.074;3.704;2022-11-27T05:29:30;12.88;;;4.57;;
26702;SDS011;14316;51.074;3.704;2022-11-27T05:31:58;10.50;;;4.60;;
26702;SDS011;14316;51.074;3.704;2022-11-27T05:34:24;10.52;;;4.95;;
26702;SDS011;14316;51.074;3.704;2022-11-27T05:36:50;11.43;;;5.60;;
26702;SDS011;14316;51.074;3.704;2022-11-27T05:39:16;13.88;;;5.13;;
26702;SDS011;14316;51.074;3.704;2022-11-27T05:41:42;10.65;;;4.55;;
26702;SDS011;14316;51.074;3.704;2022-11-27T05:44:11;9.77;;;4.90;;
26702;SDS011;14316;51.074;3.704;2022-11-27T05:46:39;11.25;;;5.13;;
26702;SDS011;14316;51.074;3.704;2022-11-27T05:49:08;11.95;;;4.68;;
26702;SDS011;14316;51.074;3.704;2022-11-27T05:51:36;12.07;;;4.32;;
26702;SDS011;14316;51.074;3.704;2022-11-27T05:54:02;12.18;;;4.78;;
26702;SDS011;14316;51.074;3.704;2022-11-27T05:56:27;11.45;;;4.82;;
26702;SDS011;14316;51.074;3.704;2022-11-27T05:58:54;10.00;;;5.15;;
26702;SDS011;14316;51.074;3.704;2022-11-27T06:01:19;17.63;;;6.75;;
26702;SDS011;14316;51.074;3.704;2022-11-27T06:03:45;9.57;;;4.90;;
26702;SDS011;14316;51.074;3.704;2022-11-27T06:06:12;7.72;;;4.53;;
26702;SDS011;14316;51.074;3.704;2022-11-27T06:08:40;15.05;;;5.40;;
26702;SDS011;14316;51.074;3.704;2022-11-27T06:11:10;11.30;;;5.25;;
26702;SDS011;14316;51.074;3.704;2022-11-27T06:13:37;10.27;;;5.10;;
26702;SDS011;14316;51.074;3.704;2022-11-27T06:16:11;12.85;;;5.13;;
26702;SDS011;14316;51.074;3.704;2022-11-27T06:18:50;11.20;;;5.10;;
26702;SDS011;14316;51.074;3.704;2022-11-27T06:21:17;11.48;;;5.10;;
26702;SDS011;14316;51.074;3.704;2022-11-27T06:23:44;12.75;;;5.35;;
26702;SDS011;14316;51.074;3.704;2022-11-27T06:28:39;14.85;;;6.85;;
26702;SDS011;14316;51.074;3.704;2022-11-27T06:31:06;13.25;;;6.10;;
26702;SDS011;14316;51.074;3.704;2022-11-27T06:33:33;10.25;;;5.22;;
26702;SDS011;14316;51.074;3.704;2022-11-27T06:35:59;9.75;;;5.50;;
26702;SDS011;14316;51.074;3.704;2022-11-27T06:38:26;12.05;;;5.45;;
26702;SDS011;14316;51.074;3.704;2022-11-27T06:40:51;13.68;;;5.32;;
26702;SDS011;14316;51.074;3.704;2022-11-27T06:43:17;11.15;;;5.35;;
26702;SDS011;14316;51.074;3.704;2022-11-27T06:45:43;11.80;;;6.13;;
26702;SDS011;14316;51.074;3.704;2022-11-27T06:48:08;14.98;;;5.65;;
26702;SDS011;14316;51.074;3.704;2022-11-27T06:50:34;9.70;;;5.15;;
26702;SDS011;14316;51.074;3.704;2022-11-27T06:53:00;14.20;;;7.22;;
26702;SDS011;14316;51.074;3.704;2022-11-27T06:55:26;16.67;;;6.43;;
26702;SDS011;14316;51.074;3.704;2022-11-27T06:57:51;10.60;;;5.68;;
26702;SDS011;14316;51.074;3.704;2022-11-27T07:00:18;12.00;;;5.45;;
26702;SDS011;14316;51.074;3.704;2022-11-27T07:02:44;14.38;;;5.38;;
26702;SDS011;14316;51.074;3.704;2022-11-27T07:05:09;14.48;;;5.20;;
26702;SDS011;14316;51.074;3.704;2022-11-27T07:07:35;12.77;;;5.22;;
26702;SDS011;14316;51.074;3.704;2022-11-27T07:10:00;7.95;;;5.18;;
26702;SDS011;14316;51.074;3.704;2022-11-27T07:12:26;9.35;;;5.43;;
26702;SDS011;14316;51.074;3.704;2022-11-27T07:14:52;11.27;;;5.53;;
26702;SDS011;14316;51.074;3.704;2022-11-27T07:17:18;15.35;;;5.82;;
26702;SDS011;14316;51.074;3.704;2022-11-27T07:19:44;12.98;;;6.13;;
26702;SDS011;14316;51.074;3.704;2022-11-27T07:22:11;15.07;;;8.57;;
26702;SDS011;14316;51.074;3.704;2022-11-27T07:24:37;21.95;;;11.50;;
26702;SDS011;14316;51.074;3.704;2022-11-27T07:27:02;18.95;;;9.80;;
26702;SDS011;14316;51.074;3.704;2022-11-27T07:29:28;22.08;;;13.23;;
26702;SDS011;14316;51.074;3.704;2022-11-27T07:31:53;18.30;;;13.35;;
26702;SDS011;14316;51.074;3.704;2022-11-27T07:34:19;18.85;;;11.98;;
26702;SDS011;14316;51.074;3.704;2022-11-27T07:36:45;17.85;;;9.38;;
26702;SDS011;14316;51.074;3.704;2022-11-27T07:39:11;19.55;;;11.30;;
26702;SDS011;14316;51.074;3.704;2022-11-27T07:41:36;19.77;;;12.95;;
26702;SDS011;14316;51.074;3.704;2022-11-27T07:44:02;21.20;;;13.10;;
26702;SDS011;14316;51.074;3.704;2022-11-27T07:46:28;10.85;;;7.75;;
26702;SDS011;14316;51.074;3.704;2022-11-27T07:48:54;15.07;;;8.90;;
26702;SDS011;14316;51.074;3.704;2022-11-27T07:51:20;11.70;;;8.07;;
26702;SDS011;14316;51.074;3.704;2022-11-27T07:53:46;14.80;;;8.85;;
26702;SDS011;14316;51.074;3.704;2022-11-27T07:56:15;11.43;;;5.88;;
26702;SDS011;14316;51.074;3.704;2022-11-27T07:58:41;16.02;;;6.82;;
26702;SDS011;14316;51.074;3.704;2022-11-27T08:01:08;13.02;;;6.53;;
26702;SDS011;14316;51.074;3.704;2022-11-27T08:03:36;12.35;;;6.63;;
26702;SDS011;14316;51.074;3.704;2022-11-27T08:06:02;11.10;;;6.20;;
26702;SDS011;14316;51.074;3.704;2022-11-27T08:08:29;8.90;;;6.32;;
26702;SDS011;14316;51.074;3.704;2022-11-27T08:10:56;13.10;;;7.10;;
26702;SDS011;14316;51.074;3.704;2022-11-27T08:13:22;11.30;;;7.32;;
26702;SDS011;14316;51.074;3.704;2022-11-27T08:15:48;15.93;;;7.68;;
26702;SDS011;14316;51.074;3.704;2022-11-27T08:18:13;14.13;;;7.72;;
26702;SDS011;14316;51.074;3.704;2022-11-27T08:20:40;12.70;;;7.38;;
26702;SDS011;14316;51.074;3.704;2022-11-27T08:23:05;15.60;;;7.57;;
26702;SDS011;14316;51.074;3.704;2022-11-27T08:25:31;12.82;;;6.97;;
26702;SDS011;14316;51.074;3.704;2022-11-27T08:27:57;13.13;;;6.97;;
26702;SDS011;14316;51.074;3.704;2022-11-27T08:30:23;12.45;;;7.13;;
26702;SDS011;14316;51.074;3.704;2022-11-27T08:32:49;14.75;;;7.75;;
26702;SDS011;14316;51.074;3.704;2022-11-27T08:35:15;12.30;;;8.00;;
26702;SDS011;14316;51.074;3.704;2022-11-27T08:37:40;15.52;;;7.50;;
26702;SDS011;14316;51.074;3.704;2022-11-27T08:40:06;10.88;;;6.47;;
26702;SDS011;14316;51.074;3.704;2022-11-27T08:42:32;12.43;;;7.93;;
26702;SDS011;14316;51.074;3.704;2022-11-27T08:44:58;12.98;;;7.05;;
26702;SDS011;14316;51.074;3.704;2022-11-27T08:47:28;12.93;;;7.70;;
26702;SDS011;14316;51.074;3.704;2022-11-27T08:49:57;13.68;;;7.15;;
26702;SDS011;14316;51.074;3.704;2022-11-27T08:52:23;13.35;;;8.10;;
26702;SDS011;14316;51.074;3.704;2022-11-27T08:54:48;13.10;;;7.80;;
26702;SDS011;14316;51.074;3.704;2022-11-27T08:57:15;11.30;;;7.63;;
26702;SDS011;14316;51.074;3.704;2022-11-27T08:59:40;14.38;;;7.95;;
26702;SDS011;14316;51.074;3.704;2022-11-27T09:02:09;14.48;;;8.02;;
26702;SDS011;14316;51.074;3.704;2022-11-27T09:04:37;16.20;;;7.80;;
26702;SDS011;14316;51.074;3.704;2022-11-27T09:07:02;14.88;;;8.40;;
26702;SDS011;14316;51.074;3.704;2022-11-27T09:09:28;11.13;;;9.02;;
26702;SDS011;14316;51.074;3.704;2022-11-27T09:11:54;13.80;;;8.02;;
26702;SDS011;14316;51.074;3.704;2022-11-27T09:14:20;15.35;;;8.52;;
26702;SDS011;14316;51.074;3.704;2022-11-27T09:16:46;12.77;;;8.30;;
26702;SDS011;14316;51.074;3.704;2022-11-27T09:19:12;14.63;;;9.20;;
26702;SDS011;14316;51.074;3.704;2022-11-27T09:21:38;16.73;;;7.88;;
26702;SDS011;14316;51.074;3.704;2022-11-27T09:24:04;14.13;;;8.27;;
26702;SDS011;14316;51.074;3.704;2022-11-27T09:26:30;14.35;;;9.35;;
26702;SDS011;14316;51.074;3.704;2022-11-27T09:28:56;16.23;;;9.57;;
26702;SDS011;14316;51.074;3.704;2022-11-27T09:31:22;12.98;;;8.50;;
26702;SDS011;14316;51.074;3.704;2022-11-27T09:33:49;15.50;;;8.30;;
26702;SDS011;14316;51.074;3.704;2022-11-27T09:36:22;16.05;;;12.43;;
26702;SDS011;14316;51.074;3.704;2022-11-27T09:38:52;8.75;;;6.28;;
26702;SDS011;14316;51.074;3.704;2022-11-27T09:44:01;14.25;;;9.07;;
26702;SDS011;14316;51.074;3.704;2022-11-27T09:46:35;14.57;;;9.10;;
26702;SDS011;14316;51.074;3.704;2022-11-27T09:49:07;12.02;;;8.80;;
26702;SDS011;14316;51.074;3.704;2022-11-27T09:56:59;16.92;;;9.48;;
26702;SDS011;14316;51.074;3.704;2022-11-27T09:59:32;15.98;;;9.00;;
26702;SDS011;14316;51.074;3.704;2022-11-27T10:02:11;15.80;;;11.25;;
26702;SDS011;14316;51.074;3.704;2022-11-27T10:04:59;20.88;;;12.75;;
26702;SDS011;14316;51.074;3.704;2022-11-27T10:07:32;21.02;;;13.75;;
26702;SDS011;14316;51.074;3.704;2022-11-27T10:15:55;14.27;;;10.75;;
26702;SDS011;14316;51.074;3.704;2022-11-27T10:18:31;17.05;;;11.20;;
26702;SDS011;14316;51.074;3.704;2022-11-27T10:23:55;15.95;;;9.88;;
26702;SDS011;14316;51.074;3.704;2022-11-27T10:26:28;16.02;;;10.02;;
26702;SDS011;14316;51.074;3.704;2022-11-27T10:31:39;12.20;;;8.68;;
26702;SDS011;14316;51.074;3.704;2022-11-27T10:36:57;16.52;;;8.73;;
26702;SDS011;14316;51.074;3.704;2022-11-27T10:39:36;16.20;;;9.43;;
26702;SDS011;14316;51.074;3.704;2022-11-27T10:42:09;10.98;;;8.52;;
26702;SDS011;14316;51.074;3.704;2022-11-27T10:44:43;12.10;;;7.40;;
26702;SDS011;14316;51.074;3.704;2022-11-27T10:47:26;15.90;;;9.02;;
26702;SDS011;14316;51.074;3.704;2022-11-27T10:49:53;11.38;;;7.90;;
26702;SDS011;14316;51.074;3.704;2022-11-27T10:52:19;15.50;;;8.75;;
26702;SDS011;14316;51.074;3.704;2022-11-27T10:54:49;13.75;;;8.73;;
26702;SDS011;14316;51.074;3.704;2022-11-27T11:00:25;11.40;;;8.00;;
26702;SDS011;14316;51.074;3.704;2022-11-27T11:03:02;15.93;;;8.55;;
26702;SDS011;14316;51.074;3.704;2022-11-27T11:05:29;13.68;;;8.20;;
26702;SDS011;14316;51.074;3.704;2022-11-27T11:08:03;13.60;;;8.75;;
26702;SDS011;14316;51.074;3.704;2022-11-27T11:10:53;11.07;;;7.68;;
26702;SDS011;14316;51.074;3.704;2022-11-27T11:13:26;15.15;;;9.25;;
26702;SDS011;14316;51.074;3.704;2022-11-27T11:18:30;14.73;;;8.55;;
26702;SDS011;14316;51.074;3.704;2022-11-27T11:20:58;11.88;;;8.75;;
26702;SDS011;14316;51.074;3.704;2022-11-27T11:23:33;13.18;;;9.10;;
26702;SDS011;14316;51.074;3.704;2022-11-27T11:26:04;13.05;;;9.05;;
26702;SDS011;14316;51.074;3.704;2022-11-27T11:28:42;13.30;;;8.15;;
26702;SDS011;14316;51.074;3.704;2022-11-27T11:31:13;13.45;;;8.57;;
26702;SDS011;14316;51.074;3.704;2022-11-27T11:33:54;13.13;;;9.07;;
26702;SDS011;14316;51.074;3.704;2022-11-27T11:36:23;11.07;;;7.93;;
26702;SDS011;14316;51.074;3.704;2022-11-27T11:38:49;11.23;;;7.63;;
26702;SDS011;14316;51.074;3.704;2022-11-27T11:41:16;10.77;;;8.30;;
26702;SDS011;14316;51.074;3.704;2022-11-27T11:43:56;10.40;;;7.25;;
26702;SDS011;14316;51.074;3.704;2022-11-27T11:46:30;9.82;;;7.55;;
26702;SDS011;14316;51.074;3.704;2022-11-27T11:49:04;13.80;;;9.18;;
26702;SDS011;14316;51.074;3.704;2022-11-27T11:54:28;11.90;;;7.75;;
26702;SDS011;14316;51.074;3.704;2022-11-27T11:56:58;12.48;;;8.35;;
26702;SDS011;14316;51.074;3.704;2022-11-27T12:10:18;9.77;;;6.65;;
26702;SDS011;14316;51.074;3.704;2022-11-27T12:13:06;11.02;;;9.02;;
26702;SDS011;14316;51.074;3.704;2022-11-27T12:15:38;11.15;;;6.75;;
26702;SDS011;14316;51.074;3.704;2022-11-27T12:18:24;13.88;;;8.25;;
26702;SDS011;14316;51.074;3.704;2022-11-27T12:21:13;10.27;;;7.13;;
26702;SDS011;14316;51.074;3.704;2022-11-27T12:29:02;12.05;;;7.05;;
26702;SDS011;14316;51.074;3.704;2022-11-27T12:31:40;8.30;;;6.60;;
26702;SDS011;14316;51.074;3.704;2022-11-27T12:45:24;7.85;;;5.53;;
26702;SDS011;14316;51.074;3.704;2022-11-27T12:56:14;8.10;;;5.45;;
26702;SDS011;14316;51.074;3.704;2022-11-27T13:09:44;8.60;;;5.65;;
26702;SDS011;14316;51.074;3.704;2022-11-27T13:12:12;9.15;;;6.13;;
26702;SDS011;14316;51.074;3.704;2022-11-27T13:15:23;10.27;;;5.50;;
26702;SDS011;14316;51.074;3.704;2022-11-27T13:17:57;11.85;;;6.35;;
26702;SDS011;14316;51.074;3.704;2022-11-27T13:20:33;11.60;;;6.93;;
26702;SDS011;14316;51.074;3.704;2022-11-27T13:23:02;11.40;;;7.45;;
26702;SDS011;14316;51.074;3.704;2022-11-27T13:25:28;12.38;;;7.25;;
26702;SDS011;14316;51.074;3.704;2022-11-27T13:27:56;13.50;;;6.90;;
26702;SDS011;14316;51.074;3.704;2022-11-27T13:30:24;14.77;;;7.50;;
26702;SDS011;14316;51.074;3.704;2022-11-27T13:32:53;9.20;;;7.10;;
26702;SDS011;14316;51.074;3.704;2022-11-27T13:38:27;11.85;;;7.40;;
26702;SDS011;14316;51.074;3.704;2022-11-27T13:40:49;10.05;;;7.10;;
26702;SDS011;14316;51.074;3.704;2022-11-27T13:43:27;13.02;;;7.93;;
26702;SDS011;14316;51.074;3.704;2022-11-27T13:46:06;12.38;;;8.80;;
26702;SDS011;14316;51.074;3.704;2022-11-27T13:48:36;31.27;;;10.23;;
26702;SDS011;14316;51.074;3.704;2022-11-27T13:51:05;16.15;;;9.20;;
26702;SDS011;14316;51.074;3.704;2022-11-27T13:53:40;65.40;;;12.20;;
26702;SDS011;14316;51.074;3.704;2022-11-27T13:56:07;39.83;;;10.55;;
26702;SDS011;14316;51.074;3.704;2022-11-27T13:58:39;22.35;;;8.65;;
26702;SDS011;14316;51.074;3.704;2022-11-27T14:01:16;67.68;;;12.52;;
26702;SDS011;14316;51.074;3.704;2022-11-27T14:03:44;34.90;;;11.38;;
26702;SDS011;14316;51.074;3.704;2022-11-27T14:06:49;13.48;;;7.43;;
26702;SDS011;14316;51.074;3.704;2022-11-27T14:09:03;12.45;;;7.60;;
26702;SDS011;14316;51.074;3.704;2022-11-27T14:11:32;10.70;;;7.40;;
26702;SDS011;14316;51.074;3.704;2022-11-27T14:14:11;16.15;;;8.23;;
26702;SDS011;14316;51.074;3.704;2022-11-27T14:16:40;10.18;;;7.95;;
26702;SDS011;14316;51.074;3.704;2022-11-27T14:19:28;12.98;;;7.57;;
26702;SDS011;14316;51.074;3.704;2022-11-27T14:21:54;10.85;;;7.60;;
26702;SDS011;14316;51.074;3.704;2022-11-27T14:29:19;9.90;;;6.32;;
26702;SDS011;14316;51.074;3.704;2022-11-27T14:31:54;11.00;;;7.05;;
26702;SDS011;14316;51.074;3.704;2022-11-27T14:34:28;12.38;;;7.97;;
26702;SDS011;14316;51.074;3.704;2022-11-27T14:37:00;12.05;;;8.07;;
26702;SDS011;14316;51.074;3.704;2022-11-27T14:39:29;13.43;;;7.25;;
26702;SDS011;14316;51.074;3.704;2022-11-27T14:42:01;10.88;;;7.38;;
26702;SDS011;14316;51.074;3.704;2022-11-27T14:44:31;9.55;;;6.93;;
26702;SDS011;14316;51.074;3.704;2022-11-27T14:46:59;9.77;;;6.55;;
26702;SDS011;14316;51.074;3.704;2022-11-27T14:49:28;11.40;;;7.80;;
26702;SDS011;14316;51.074;3.704;2022-11-27T14:51:56;10.65;;;7.47;;
26702;SDS011;14316;51.074;3.704;2022-11-27T14:54:32;9.73;;;7.13;;
26702;SDS011;14316;51.074;3.704;2022-11-27T14:57:00;10.57;;;6.65;;
26702;SDS011;14316;51.074;3.704;2022-11-27T14:59:28;12.15;;;7.68;;
26702;SDS011;14316;51.074;3.704;2022-11-27T15:01:58;9.95;;;6.72;;
26702;SDS011;14316;51.074;3.704;2022-11-27T15:04:34;12.30;;;7.30;;
26702;SDS011;14316;51.074;3.704;2022-11-27T15:07:05;11.68;;;7.00;;
26702;SDS011;14316;51.074;3.704;2022-11-27T15:09:48;13.15;;;8.07;;
26702;SDS011;14316;51.074;3.704;2022-11-27T15:12:21;11.52;;;7.40;;
26702;SDS011;14316;51.074;3.704;2022-11-27T15:15:08;13.10;;;8.30;;
26702;SDS011;14316;51.074;3.704;2022-11-27T15:17:35;12.00;;;8.60;;
26702;SDS011;14316;51.074;3.704;2022-11-27T15:20:17;12.65;;;8.18;;
26702;SDS011;14316;51.074;3.704;2022-11-27T15:22:49;13.48;;;9.75;;
26702;SDS011;14316;51.074;3.704;2022-11-27T15:25:27;12.68;;;8.02;;
26702;SDS011;14316;51.074;3.704;2022-11-27T15:28:24;12.00;;;8.85;;
26702;SDS011;14316;51.074;3.704;2022-11-27T15:30:50;13.20;;;9.68;;
26702;SDS011;14316;51.074;3.704;2022-11-27T15:33:23;13.30;;;9.23;;
26702;SDS011;14316;51.074;3.704;2022-11-27T15:35:54;14.23;;;8.52;;
26702;SDS011;14316;51.074;3.704;2022-11-27T15:38:40;10.55;;;8.27;;
26702;SDS011;14316;51.074;3.704;2022-11-27T15:41:26;11.23;;;7.60;;
26702;SDS011;14316;51.074;3.704;2022-11-27T15:43:54;12.40;;;8.60;;
26702;SDS011;14316;51.074;3.704;2022-11-27T15:46:27;10.95;;;7.82;;
26702;SDS011;14316;51.074;3.704;2022-11-27T15:48:56;11.23;;;8.35;;
26702;SDS011;14316;51.074;3.704;2022-11-27T15:51:25;12.65;;;8.40;;
26702;SDS011;14316;51.074;3.704;2022-11-27T15:53:50;10.27;;;8.68;;
26702;SDS011;14316;51.074;3.704;2022-11-27T15:56:16;16.58;;;9.05;;
26702;SDS011;14316;51.074;3.704;2022-11-27T15:58:43;14.20;;;9.38;;
26702;SDS011;14316;51.074;3.704;2022-11-27T16:01:09;14.70;;;10.02;;
26702;SDS011;14316;51.074;3.704;2022-11-27T16:03:35;15.57;;;9.57;;
26702;SDS011;14316;51.074;3.704;2022-11-27T16:06:02;10.30;;;8.95;;
26702;SDS011;14316;51.074;3.704;2022-11-27T16:08:28;14.93;;;11.23;;
26702;SDS011;14316;51.074;3.704;2022-11-27T16:10:57;15.02;;;9.35;;
26702;SDS011;14316;51.074;3.704;2022-11-27T16:13:27;11.57;;;8.88;;
26702;SDS011;14316;51.074;3.704;2022-11-27T16:15:53;17.23;;;11.38;;
26702;SDS011;14316;51.074;3.704;2022-11-27T16:18:19;14.70;;;10.65;;
26702;SDS011;14316;51.074;3.704;2022-11-27T16:20:45;17.98;;;10.95;;
26702;SDS011;14316;51.074;3.704;2022-11-27T16:23:10;15.27;;;10.35;;
26702;SDS011;14316;51.074;3.704;2022-11-27T16:25:37;16.85;;;11.20;;
26702;SDS011;14316;51.074;3.704;2022-11-27T16:28:03;17.85;;;10.98;;
26702;SDS011;14316;51.074;3.704;2022-11-27T16:30:29;16.77;;;11.50;;
26702;SDS011;14316;51.074;3.704;2022-11-27T16:32:55;14.00;;;11.40;;
26702;SDS011;14316;51.074;3.704;2022-11-27T16:35:20;16.10;;;12.00;;
26702;SDS011;14316;51.074;3.704;2022-11-27T16:37:48;15.30;;;9.98;;
26702;SDS011;14316;51.074;3.704;2022-11-27T16:40:14;16.13;;;12.77;;